Atlantic - Newfoundland: Past 24 Hour Conditions

 

St. John's Int'l Airport

10:30 PM NDT 28 August 2014
This table is a summary of hourly weather conditions for the past 24 hours.
Date / Time
(NDT)
Wind(knots) Conditions Visibility(km) Pressure(kPa) Air tempC) Relative humidity(%) Dew pointC)
28 August 2014
22:30 ENE 11 gust 16 Light Rain 5 100.7 12 100 12
21:30 ENE 12 gust 18 Light Rain 2 100.8 12 100 12
20:30 ENE 13 Light Rain 3 100.8 12 100 12
19:30 ENE 14 Light Rain 2 100.8 12 100 12
18:30 ENE 15 Light Drizzle 3 100.8 12 100 12
17:30 ENE 14 Rain 2 100.9 11 100 11
16:30 NE 11 Light Rain 2 100.9 12 100 12
15:30 ENE 14 Light Rain 0.4 101.0 12 100 12
14:30 NE 12 Light Rain 2 101.0 12 99 12
13:30 ENE 10 Light Drizzle 2 101.1 12 99 12
12:30 ENE 11 Light Drizzle 4 101.1 12 100 12
11:30 ENE 10 Light Rainshower 5 101.1 12 100 12
10:30 ENE 9 gust 15 Light Rainshower 0.4 101.1 13 100 13
9:30 NE 11 gust 18 Light Rainshower 0.4 101.1 13 100 13
8:30 NE 11 Light Rainshower 0.4 101.0 12 100 12
7:30 NE 7 Light Rainshower 0.4 101.0 12 100 12
6:30 NE 10 Light Rainshower 0.8 101.0 12 100 12
5:30 NNE 10 Light Rainshower 0.8 100.9 13 100 13
4:30 NNE 10 Light Rainshower 0.8 100.9 13 99 13
3:30 NE 9 Light Rainshower 0.8 100.9 16 91 14
2:30 W 13 Light Rainshower 19 100.9 18 98 17
1:30 W 8 Mostly Cloudy 24 100.9 17 97 17
0:30 W 13 Mostly Cloudy 24 100.9 18 93 17
27 August 2014
23:30 WSW 15 gust 21 Mostly Cloudy 24 100.9 18 92 16
22:30 WSW 17 gust 24 Mostly Cloudy 24 100.8 18 92 16
 
Map of Atlantic - Newfoundland marine weather areas Southwestern Grand Banks - 44138 Banquereau - 44139 Tail of the Bank - 44140 Nickerson Bank - 44251 Northeast Burgeo Bank - 44255 Blanc-Sablon Airport Cap Whittle Chevery Natashquan Airport Heath Point Miscou Island Grand Étang Ingonish Beach North Mountain St.Paul Island J.A. Douglas McCurdy Sydney Airport Charlottetown Airport East Point North Cape Argentia Bonavista Burgeo Cape Race Corner Brook Daniel's Harbour Englee Ferolle Point La Scie Port aux Basques Rocky Harbour Sagona Island St. Anthony Airport St. John's Int'l Airport St. Lawrence Stephenville Airport Twillingate Winterland Wreckhouse Cartwright Airport Mary's Harbour Grates Cove Pool's Island Marticot Island Long Pond Îles de la Madeleine Airport
Legend: buoyBuoy land stationLand Station